createdAt,value
2018-08-23T00:01:27.334Z,78.20
2018-08-23T00:03:59.481Z,78.20
2018-08-23T00:06:29.401Z,78.50
2018-08-23T00:08:59.457Z,78.50
2018-08-23T00:11:32.057Z,79.00
2018-08-23T00:14:01.917Z,80.10
2018-08-23T00:16:47.592Z,79.90
2018-08-23T00:19:17.643Z,80.50
2018-08-23T00:21:48.606Z,81.20
2018-08-23T00:24:19.620Z,82.60
2018-08-23T00:26:52.625Z,83.00
2018-08-23T00:29:27.555Z,82.60
2018-08-23T00:32:00.052Z,82.20
2018-08-23T00:34:31.962Z,81.80
2018-08-23T00:37:02.496Z,81.70
2018-08-23T00:39:32.460Z,81.70
2018-08-23T00:42:06.258Z,81.80
2018-08-23T00:45:07.417Z,81.80
2018-08-23T00:47:37.315Z,81.70
2018-08-23T00:50:07.140Z,81.40
2018-08-23T00:52:46.660Z,81.10
2018-08-23T00:55:21.277Z,81.20
2018-08-23T00:57:53.525Z,81.20
2018-08-23T01:00:25.177Z,81.40
2018-08-23T01:03:02.545Z,81.40
2018-08-23T01:05:38.500Z,82.10
2018-08-23T01:08:09.922Z,82.00
2018-08-23T01:10:41.332Z,82.20
2018-08-23T01:13:11.886Z,82.20
2018-08-23T01:15:44.948Z,82.90
2018-08-23T01:18:18.889Z,82.80
2018-08-23T01:20:50.311Z,83.00
2018-08-23T01:23:20.070Z,82.50
2018-08-23T01:25:57.690Z,82.50
2018-08-23T01:28:34.177Z,82.40
2018-08-23T01:31:24.990Z,82.30
2018-08-23T01:33:57.950Z,82.80
2018-08-23T01:36:32.842Z,83.40
2018-08-23T01:39:08.286Z,84.10
2018-08-23T01:41:37.937Z,84.20
2018-08-23T01:44:08.027Z,83.90
2018-08-23T01:46:42.951Z,83.90
2018-08-23T01:49:12.698Z,83.90
2018-08-23T01:51:42.848Z,84.90
2018-08-23T01:54:12.815Z,84.50
2018-08-23T01:56:42.523Z,84.50
2018-08-23T01:59:12.437Z,84.70
2018-08-23T02:01:42.272Z,84.80
2018-08-23T02:04:12.002Z,84.30
2018-08-23T02:06:41.798Z,84.50
2018-08-23T02:09:11.975Z,84.70
2018-08-23T02:11:41.962Z,84.40
2018-08-23T02:14:11.774Z,84.20
2018-08-23T02:16:53.206Z,84.00
2018-08-23T02:19:23.262Z,84.20
2018-08-23T02:21:53.443Z,84.50
2018-08-23T02:24:30.077Z,84.20
2018-08-23T02:26:59.901Z,84.40
2018-08-23T02:29:46.342Z,85.00
2018-08-23T02:32:16.218Z,85.70
2018-08-23T02:34:47.113Z,86.00
2018-08-23T02:37:17.746Z,86.20
2018-08-23T02:39:47.957Z,86.20
2018-08-23T02:42:19.161Z,86.50
2018-08-23T02:44:49.343Z,86.40
2018-08-23T02:47:19.172Z,86.20
2018-08-23T02:49:49.023Z,86.10
2018-08-23T02:52:18.942Z,85.40
2018-08-23T02:54:49.155Z,85.70
2018-08-23T02:57:19.081Z,86.20
2018-08-23T02:59:48.905Z,85.90
2018-08-23T03:02:18.897Z,87.10
2018-08-23T03:04:48.716Z,86.20
2018-08-23T03:07:22.217Z,85.70
2018-08-23T03:09:52.023Z,85.30
2018-08-23T03:12:21.744Z,85.20
2018-08-23T03:14:51.422Z,85.70
2018-08-23T03:17:24.973Z,85.80
2018-08-23T03:20:14.591Z,86.40
2018-08-23T03:22:45.763Z,86.70
2018-08-23T03:25:16.973Z,86.90
2018-08-23T03:27:46.866Z,86.40
2018-08-23T03:30:18.714Z,86.40
2018-08-23T03:32:48.386Z,86.00
2018-08-23T03:35:18.107Z,86.50
2018-08-23T03:37:48.870Z,86.60
2018-08-23T03:40:19.090Z,86.40
2018-08-23T03:42:48.785Z,86.50
2018-08-23T03:45:23.631Z,86.90
2018-08-23T03:47:54.464Z,87.00
2018-08-23T03:50:24.267Z,86.50
2018-08-23T03:52:55.750Z,86.60
2018-08-23T03:55:26.874Z,86.90
2018-08-23T03:58:01.703Z,86.90
2018-08-23T04:00:36.769Z,88.40
2018-08-23T04:03:13.448Z,84.60
2018-08-23T04:05:43.394Z,82.60
2018-08-23T04:08:13.911Z,80.90
2018-08-23T04:10:43.980Z,79.70
2018-08-23T04:13:13.932Z,78.80
2018-08-23T04:15:44.078Z,78.20
2018-08-23T04:18:16.273Z,77.50
2018-08-23T04:20:55.353Z,77.30
2018-08-23T04:23:25.137Z,77.40
2018-08-23T04:25:55.261Z,76.70
2018-08-23T04:28:25.141Z,76.50
2018-08-23T04:30:55.197Z,76.20
2018-08-23T04:33:25.009Z,76.50
2018-08-23T04:35:55.059Z,76.30
2018-08-23T04:38:25.053Z,76.50
2018-08-23T04:40:58.968Z,75.80
2018-08-23T04:43:28.966Z,75.70
2018-08-23T04:45:58.793Z,76.10
2018-08-23T04:48:28.576Z,75.40
2018-08-23T04:50:58.553Z,75.70
2018-08-23T04:53:28.512Z,76.00
2018-08-23T04:55:58.397Z,75.60
2018-08-23T04:58:28.138Z,75.60
2018-08-23T05:00:58.017Z,76.30
2018-08-23T05:03:28.036Z,76.40
2018-08-23T05:05:58.067Z,76.40
2018-08-23T05:08:27.789Z,76.50
2018-08-23T05:10:57.457Z,76.80
2018-08-23T05:13:27.503Z,76.90
2018-08-23T05:15:57.427Z,77.70
2018-08-23T05:18:27.275Z,77.10
2018-08-23T05:20:57.328Z,77.00
2018-08-23T05:23:27.088Z,77.30
2018-08-23T05:25:59.240Z,77.00
2018-08-23T05:28:29.067Z,77.10
2018-08-23T05:30:59.044Z,77.80
2018-08-23T05:33:28.968Z,77.90
2018-08-23T05:35:59.274Z,78.00
2018-08-23T05:38:29.397Z,77.90
2018-08-23T05:41:04.414Z,78.20
2018-08-23T05:43:34.188Z,78.20
2018-08-23T05:46:04.313Z,78.50
2018-08-23T05:48:34.313Z,79.30
2018-08-23T05:51:13.968Z,79.40
2018-08-23T05:53:49.374Z,80.40
2018-08-23T05:56:20.578Z,80.40
2018-08-23T05:58:50.499Z,81.40
2018-08-23T06:01:20.283Z,82.80
2018-08-23T06:03:50.380Z,84.40
2018-08-23T06:06:20.276Z,85.30
2018-08-23T06:08:54.457Z,87.10
2018-08-23T06:11:24.309Z,88.70
2018-08-23T06:13:54.166Z,88.70
2018-08-23T06:16:24.258Z,89.40
2018-08-23T06:18:54.532Z,89.30
2018-08-23T06:21:24.454Z,89.60
2018-08-23T06:23:55.902Z,90.00
2018-08-23T06:26:39.255Z,90.10
2018-08-23T06:29:10.739Z,89.80
2018-08-23T06:31:51.259Z,90.50
2018-08-23T06:34:21.100Z,90.50
2018-08-23T06:36:51.082Z,90.90
2018-08-23T06:39:20.873Z,90.50
2018-08-23T06:42:25.181Z,90.30
2018-08-23T06:44:56.042Z,90.70
2018-08-23T06:47:27.128Z,90.40
2018-08-23T06:49:56.988Z,90.60
2018-08-23T06:52:39.313Z,90.50
2018-08-23T06:55:14.047Z,90.40
2018-08-23T06:57:49.848Z,90.30
2018-08-23T07:00:25.589Z,89.90
2018-08-23T07:02:55.687Z,89.90
2018-08-23T07:05:25.552Z,90.10
2018-08-23T07:07:55.572Z,90.30
2018-08-23T07:10:25.368Z,89.80
2018-08-23T07:12:56.760Z,90.60
2018-08-23T07:15:26.917Z,90.00
2018-08-23T07:17:56.880Z,90.00
2018-08-23T07:20:26.703Z,90.10
2018-08-23T07:22:56.333Z,90.10
2018-08-23T07:25:26.402Z,90.30
2018-08-23T07:27:56.483Z,90.10
2018-08-23T07:30:26.353Z,90.10
2018-08-23T07:32:56.601Z,89.10
2018-08-23T07:35:26.257Z,88.50
2018-08-23T07:37:55.953Z,87.30
2018-08-23T07:40:25.852Z,87.40
2018-08-23T07:42:56.151Z,87.10
2018-08-23T07:45:25.778Z,86.80
2018-08-23T07:47:56.681Z,85.90
2018-08-23T07:50:27.087Z,84.40
2018-08-23T07:52:56.987Z,84.20
2018-08-23T07:55:26.642Z,83.50
2018-08-23T07:57:56.504Z,83.50
2018-08-23T08:00:30.784Z,84.20
2018-08-23T08:03:00.808Z,82.80
2018-08-23T08:05:32.304Z,81.50
2018-08-23T08:08:02.142Z,80.90
2018-08-23T08:10:38.754Z,80.90
2018-08-23T08:13:08.493Z,80.20
2018-08-23T08:15:38.811Z,80.20
2018-08-23T08:18:19.983Z,80.30
2018-08-23T08:20:56.549Z,80.40
2018-08-23T08:23:26.427Z,78.70
2018-08-23T08:25:56.235Z,78.50
2018-08-23T08:28:26.218Z,78.70
2018-08-23T08:30:59.537Z,78.90
2018-08-23T08:33:36.162Z,79.50
2018-08-23T08:36:06.682Z,79.00
2018-08-23T08:38:37.029Z,78.50
2018-08-23T08:41:07.013Z,77.90
2018-08-23T08:43:37.084Z,77.60
2018-08-23T08:46:07.098Z,76.70
2018-08-23T08:48:37.019Z,76.60
2018-08-23T08:51:16.761Z,76.20
2018-08-23T08:53:47.072Z,76.70
2018-08-23T08:56:22.103Z,75.70
2018-08-23T08:58:52.910Z,75.70
2018-08-23T09:01:22.849Z,74.80
2018-08-23T09:03:52.877Z,73.90
2018-08-23T09:06:24.244Z,73.60
2018-08-23T09:08:54.108Z,74.00
2018-08-23T09:14:01.854Z,73.90
2018-08-23T09:16:31.957Z,71.70
2018-08-23T09:19:04.312Z,71.60
2018-08-23T09:21:34.679Z,71.00
2018-08-23T09:24:28.682Z,71.10
2018-08-23T09:26:58.625Z,71.40
2018-08-23T09:29:38.638Z,71.60
2018-08-23T09:32:19.104Z,69.60
2018-08-23T09:34:49.295Z,69.10
2018-08-23T09:37:19.825Z,67.60
2018-08-23T09:45:25.623Z,68.10
2018-08-23T09:47:55.399Z,67.90
2018-08-23T09:50:25.803Z,68.40
2018-08-23T09:52:55.894Z,68.10
2018-08-23T09:55:34.077Z,68.10
2018-08-23T09:58:03.853Z,68.40
2018-08-23T10:00:38.901Z,68.50
2018-08-23T10:03:13.899Z,68.00
2018-08-23T10:05:48.963Z,67.80
2018-08-23T10:08:24.091Z,67.60
2018-08-23T10:10:59.062Z,67.30
2018-08-23T10:13:34.124Z,66.80
2018-08-23T10:16:09.666Z,67.20
2018-08-23T10:18:44.998Z,67.30
2018-08-23T10:21:17.033Z,67.00
2018-08-23T10:23:46.883Z,66.20
2018-08-23T10:26:30.888Z,65.70
2018-08-23T10:29:00.850Z,64.30
2018-08-23T10:31:30.792Z,63.50
2018-08-23T10:34:00.811Z,63.10
2018-08-23T10:36:30.879Z,63.20
2018-08-23T10:39:00.855Z,62.50
2018-08-23T10:41:30.865Z,62.60
2018-08-23T10:44:00.599Z,61.50
2018-08-23T10:46:34.670Z,61.00
2018-08-23T10:49:04.736Z,61.70
2018-08-23T10:51:34.732Z,62.50
2018-08-23T10:54:04.698Z,62.10
2018-08-23T10:56:34.698Z,61.90
2018-08-23T10:59:04.863Z,62.40
2018-08-23T11:01:34.664Z,61.90
2018-08-23T11:04:05.792Z,61.80
2018-08-23T11:06:37.547Z,61.30
2018-08-23T11:09:13.942Z,60.80
2018-08-23T11:11:43.615Z,61.40
2018-08-23T11:14:53.822Z,60.60
2018-08-23T11:17:29.088Z,61.90
2018-08-23T11:21:05.304Z,62.00
2018-08-23T11:23:35.344Z,63.20
2018-08-23T11:26:05.457Z,62.10
2018-08-23T11:28:35.554Z,61.80
2018-08-23T11:31:05.479Z,62.10
2018-08-23T11:33:35.632Z,61.40
2018-08-23T11:36:05.619Z,60.50
2018-08-23T11:38:35.533Z,60.80
2018-08-23T11:41:05.646Z,60.40
2018-08-23T11:43:35.609Z,60.80
2018-08-23T11:46:10.837Z,60.50
2018-08-23T11:48:41.261Z,60.60
2018-08-23T11:51:11.544Z,59.80
2018-08-23T11:53:41.746Z,58.80
2018-08-23T11:56:11.678Z,58.50
2018-08-23T11:58:42.202Z,57.40
2018-08-23T12:01:13.290Z,56.60
2018-08-23T12:03:43.720Z,55.30
2018-08-23T12:06:14.660Z,55.70
2018-08-23T12:08:44.706Z,56.10
2018-08-23T12:11:14.614Z,55.20
2018-08-23T12:13:49.573Z,55.10
2018-08-23T12:16:19.734Z,53.50
2018-08-23T12:18:50.083Z,53.60
2018-08-23T12:21:20.054Z,53.20
2018-08-23T12:23:50.034Z,52.30
2018-08-23T12:26:19.792Z,52.00
2018-08-23T12:28:54.684Z,52.50
2018-08-23T12:31:24.698Z,53.30
2018-08-23T12:33:54.764Z,53.80
2018-08-23T12:36:29.645Z,53.90
2018-08-23T12:39:04.662Z,53.60
2018-08-23T12:41:39.603Z,53.20
2018-08-23T12:44:09.577Z,52.80
2018-08-23T12:46:39.496Z,52.00
2018-08-23T12:49:09.430Z,51.30
2018-08-23T12:51:39.323Z,51.90
2018-08-23T12:54:09.297Z,51.80
2018-08-23T12:56:39.179Z,52.50
2018-08-23T12:59:09.019Z,52.00
2018-08-23T13:01:38.887Z,51.80
2018-08-23T13:04:08.955Z,52.00
2018-08-23T13:06:38.920Z,52.20
2018-08-23T13:09:08.682Z,52.30
2018-08-23T13:11:39.047Z,52.40
2018-08-23T13:14:09.903Z,51.30
2018-08-23T13:16:39.774Z,49.00
2018-08-23T13:19:09.763Z,47.90
2018-08-23T13:21:39.844Z,47.80
2018-08-23T13:24:09.748Z,47.20
2018-08-23T13:26:45.438Z,47.40
2018-08-23T13:29:15.595Z,47.10
2018-08-23T13:31:45.683Z,47.90
2018-08-23T13:34:15.789Z,47.10
2018-08-23T13:36:45.827Z,47.30
2018-08-23T13:39:15.944Z,47.90
2018-08-23T13:41:45.654Z,47.70
2018-08-23T13:44:15.467Z,48.40
2018-08-23T13:46:45.438Z,50.60
2018-08-23T13:49:15.453Z,49.20
2018-08-23T13:51:45.412Z,49.40
2018-08-23T13:54:15.498Z,49.20
2018-08-23T13:56:45.489Z,49.70
2018-08-23T13:59:15.352Z,50.90
2018-08-23T14:01:45.050Z,51.90
2018-08-23T14:04:14.938Z,52.40
2018-08-23T14:06:44.829Z,52.00
2018-08-23T14:09:14.757Z,52.20
2018-08-23T14:11:44.625Z,50.70
2018-08-23T14:14:14.558Z,50.20
2018-08-23T14:16:44.858Z,49.40
2018-08-23T14:19:14.937Z,49.30
2018-08-23T14:21:45.025Z,49.20
2018-08-23T14:24:14.931Z,49.30
2018-08-23T14:26:45.056Z,49.70
2018-08-23T14:29:16.066Z,50.20
2018-08-23T14:36:38.794Z,51.90
2018-08-23T14:39:11.480Z,51.60
2018-08-23T14:41:41.628Z,51.90
2018-08-23T14:44:12.187Z,50.80
2018-08-23T14:46:47.412Z,50.90
2018-08-23T14:49:35.722Z,51.10
2018-08-23T14:52:06.807Z,51.00
2018-08-23T14:54:43.789Z,52.20
2018-08-23T14:57:19.090Z,51.70
2018-08-23T14:59:48.910Z,51.50
2018-08-23T15:02:18.882Z,52.30
2018-08-23T15:04:49.530Z,51.50
2018-08-23T15:07:19.564Z,50.70
2018-08-23T15:09:49.565Z,49.00
2018-08-23T15:12:19.466Z,48.10
2018-08-23T15:14:49.329Z,48.10
2018-08-23T15:17:19.233Z,46.70
2018-08-23T15:19:49.025Z,46.70
2018-08-23T15:22:19.246Z,48.50
2018-08-23T15:24:49.088Z,48.30
2018-08-23T15:27:19.123Z,48.80
2018-08-23T15:29:49.084Z,48.70
2018-08-23T15:32:19.519Z,48.00
2018-08-23T15:34:49.489Z,47.50
2018-08-23T15:37:19.484Z,47.40
2018-08-23T15:39:49.556Z,46.10
2018-08-23T15:42:20.592Z,46.10
2018-08-23T15:44:50.471Z,46.70
2018-08-23T15:47:20.264Z,46.40
2018-08-23T15:49:50.252Z,47.00
2018-08-23T15:52:20.210Z,47.00
2018-08-23T15:54:50.116Z,47.00
2018-08-23T15:57:19.982Z,46.90
2018-08-23T15:59:50.034Z,47.20
2018-08-23T16:02:20.151Z,46.70
2018-08-23T16:04:50.328Z,46.70
2018-08-23T16:07:20.416Z,46.90
2018-08-23T16:09:50.506Z,45.90
2018-08-23T16:12:20.421Z,47.50
2018-08-23T16:14:50.412Z,48.00
2018-08-23T16:17:25.573Z,48.20
2018-08-23T16:20:01.001Z,47.90
2018-08-23T16:22:31.149Z,48.00
2018-08-23T16:25:01.291Z,49.70
2018-08-23T16:27:31.353Z,49.80
2018-08-23T16:30:01.490Z,50.60
2018-08-23T16:32:35.422Z,51.40
2018-08-23T16:35:05.357Z,51.80
2018-08-23T16:37:35.963Z,52.50
2018-08-23T16:40:06.364Z,53.00
2018-08-23T16:42:36.458Z,53.00
2018-08-23T16:45:06.415Z,52.70
2018-08-23T16:47:36.372Z,52.80
2018-08-23T16:50:06.313Z,53.30
2018-08-23T16:52:36.650Z,52.80
2018-08-23T16:55:06.957Z,54.00
2018-08-23T16:57:37.005Z,52.60
2018-08-23T17:00:06.960Z,51.50
2018-08-23T17:02:37.059Z,52.00
2018-08-23T17:05:07.360Z,52.00
2018-08-23T17:07:37.294Z,51.90
2018-08-23T17:10:07.272Z,50.70
2018-08-23T17:12:37.353Z,50.00
2018-08-23T17:15:11.850Z,49.80
2018-08-23T17:17:45.244Z,50.90
2018-08-23T17:20:16.374Z,52.00
2018-08-23T17:22:46.349Z,51.50
2018-08-23T17:25:16.262Z,52.20
2018-08-23T17:27:46.323Z,52.70
2018-08-23T17:30:16.455Z,52.40
2018-08-23T17:32:46.633Z,53.30
2018-08-23T17:35:16.727Z,53.60
2018-08-23T17:37:46.558Z,53.70
2018-08-23T17:40:16.506Z,54.30
2018-08-23T17:42:46.417Z,54.60
2018-08-23T17:45:16.873Z,55.70
2018-08-23T17:47:48.077Z,56.10
2018-08-23T17:50:18.944Z,57.80
2018-08-23T17:52:49.345Z,58.30
2018-08-23T17:55:19.640Z,58.50
2018-08-23T17:57:49.660Z,59.30
2018-08-23T18:00:19.590Z,59.10
2018-08-23T18:02:49.615Z,60.50
2018-08-23T18:05:19.571Z,61.10
2018-08-23T18:07:49.431Z,61.10
2018-08-23T18:10:19.531Z,61.90
2018-08-23T18:12:49.290Z,62.60
2018-08-23T18:15:19.011Z,62.80
2018-08-23T18:17:48.989Z,63.80
2018-08-23T18:20:19.067Z,64.00
2018-08-23T18:22:49.171Z,64.50
2018-08-23T18:25:19.276Z,64.90
2018-08-23T18:27:49.414Z,65.10
2018-08-23T18:30:19.578Z,66.00
2018-08-23T18:32:49.578Z,65.40
2018-08-23T18:35:19.706Z,65.90
2018-08-23T18:37:49.928Z,66.40
2018-08-23T18:40:20.008Z,66.10
2018-08-23T18:42:50.095Z,66.40
2018-08-23T18:45:20.175Z,66.30
2018-08-23T18:47:50.043Z,66.30
2018-08-23T18:50:19.894Z,66.80
2018-08-23T18:52:50.024Z,67.10
2018-08-23T18:55:19.924Z,67.50
2018-08-23T18:57:51.183Z,66.80
2018-08-23T19:00:21.526Z,66.70
2018-08-23T19:02:51.466Z,66.90
2018-08-23T19:05:21.508Z,67.00
2018-08-23T19:07:51.728Z,67.00
2018-08-23T19:10:21.907Z,66.80
2018-08-23T19:12:52.243Z,67.40
2018-08-23T19:16:31.848Z,65.90
2018-08-23T19:19:02.028Z,66.80
2018-08-23T19:21:32.642Z,65.20
2018-08-23T19:24:03.412Z,65.40
2018-08-23T19:26:33.697Z,64.90
2018-08-23T19:29:03.919Z,65.80
2018-08-23T19:31:34.018Z,64.70
2018-08-23T19:34:04.368Z,64.40
2018-08-23T19:36:34.279Z,63.60
2018-08-23T19:39:05.797Z,65.20
2018-08-23T19:41:35.737Z,65.00
2018-08-23T19:44:05.998Z,64.50
2018-08-23T19:46:41.028Z,63.80
2018-08-23T19:49:16.133Z,63.20
2018-08-23T19:51:46.312Z,63.00
2018-08-23T19:54:17.506Z,62.60
2018-08-23T19:56:48.775Z,62.40
2018-08-23T19:59:20.145Z,62.30
2018-08-23T20:01:51.437Z,62.20
2018-08-23T20:04:22.138Z,62.10
2018-08-23T20:06:52.411Z,62.60
2018-08-23T20:09:22.315Z,63.20
2018-08-23T20:11:52.351Z,62.50
2018-08-23T20:14:22.340Z,62.60
2018-08-23T20:16:52.889Z,62.60
2018-08-23T20:19:23.098Z,62.70
2018-08-23T20:21:53.352Z,62.10
2018-08-23T20:24:23.520Z,62.20
2018-08-23T20:26:53.589Z,62.70
2018-08-23T20:29:24.124Z,63.80
2018-08-23T20:31:54.573Z,64.30
2018-08-23T20:34:25.339Z,64.90
2018-08-23T20:36:55.726Z,65.50
2018-08-23T20:39:26.502Z,66.20
2018-08-23T20:41:56.677Z,66.80
2018-08-23T20:44:27.167Z,67.50
2018-08-23T20:46:57.922Z,67.80
2018-08-23T20:49:28.007Z,68.10
2018-08-23T20:51:58.173Z,68.20
2018-08-23T20:54:28.310Z,68.50
2018-08-23T20:56:58.425Z,69.10
2018-08-23T20:59:28.417Z,69.80
2018-08-23T21:01:58.285Z,70.10
2018-08-23T21:04:28.405Z,70.50
2018-08-23T21:06:58.503Z,70.60
2018-08-23T21:09:28.574Z,70.90
2018-08-23T21:11:58.914Z,71.30
2018-08-23T21:14:28.872Z,71.70
2018-08-23T21:16:58.719Z,72.10
2018-08-23T21:19:28.746Z,71.90
2018-08-23T21:21:58.592Z,72.10
2018-08-23T21:24:28.698Z,72.00
2018-08-23T21:26:58.895Z,72.30
2018-08-23T21:29:28.994Z,72.80
2018-08-23T21:31:59.144Z,72.60
2018-08-23T21:34:29.217Z,72.30
2018-08-23T21:36:59.014Z,73.50
2018-08-23T21:39:29.009Z,73.10
2018-08-23T21:41:58.734Z,73.80
2018-08-23T21:44:28.683Z,73.40
2018-08-23T21:46:58.657Z,73.30
2018-08-23T21:49:28.940Z,73.40
2018-08-23T21:51:58.894Z,73.40
2018-08-23T21:54:28.915Z,72.70
2018-08-23T21:56:58.874Z,72.90
2018-08-23T21:59:28.697Z,72.60
2018-08-23T22:02:30.989Z,72.70
2018-08-23T22:05:00.998Z,72.60
2018-08-23T22:07:30.860Z,72.60
2018-08-23T22:10:00.769Z,72.70
2018-08-23T22:12:30.727Z,72.70
2018-08-23T22:15:00.543Z,72.90
2018-08-23T22:17:30.477Z,72.80
2018-08-23T22:20:01.381Z,72.90
2018-08-23T22:22:31.582Z,73.20
2018-08-23T22:25:01.703Z,72.70
2018-08-23T22:27:31.802Z,72.40
2018-08-23T22:30:01.774Z,72.50
2018-08-23T22:32:31.943Z,72.30
2018-08-23T22:35:01.814Z,72.20
2018-08-23T22:37:31.995Z,72.60
2018-08-23T22:40:01.894Z,72.60
2018-08-23T22:42:32.779Z,72.80
2018-08-23T22:45:02.937Z,73.10
2018-08-23T22:47:33.354Z,73.00
2018-08-23T22:50:03.444Z,72.90
2018-08-23T22:52:33.223Z,73.20
2018-08-23T22:55:03.303Z,73.20
2018-08-23T22:57:33.212Z,73.30
2018-08-23T23:00:03.903Z,73.60
2018-08-23T23:02:39.739Z,73.70
2018-08-23T23:05:10.728Z,73.80
2018-08-23T23:07:40.369Z,74.10
2018-08-23T23:10:10.375Z,74.20
2018-08-23T23:12:40.168Z,74.70
2018-08-23T23:15:15.634Z,74.70
2018-08-23T23:17:45.577Z,74.70
2018-08-23T23:20:15.706Z,74.70
2018-08-23T23:22:45.518Z,75.00
2018-08-23T23:25:15.343Z,75.00
2018-08-23T23:27:45.448Z,75.20
2018-08-23T23:30:15.372Z,75.80
2018-08-23T23:32:45.248Z,75.90
2018-08-23T23:35:15.157Z,77.10
2018-08-23T23:37:45.329Z,77.60
2018-08-23T23:40:15.183Z,78.30
2018-08-23T23:42:45.085Z,78.20
2018-08-23T23:45:15.071Z,77.50
2018-08-23T23:47:45.121Z,77.40
2018-08-23T23:50:15.089Z,78.00
2018-08-23T23:52:44.977Z,79.40
2018-08-23T23:55:14.878Z,79.90
2018-08-23T23:57:44.621Z,81.80
